sensor_id;sensor_type;location;lat;lon;timestamp;temperature;humidity
14349;DHT22;7258;50.376;8.742;2023-03-21T00:01:28;8.60;99.90
14349;DHT22;7258;50.376;8.742;2023-03-21T00:03:32;8.60;99.90
14349;DHT22;7258;50.376;8.742;2023-03-21T00:05:38;8.60;99.90
14349;DHT22;7258;50.376;8.742;2023-03-21T00:07:42;8.60;99.90
14349;DHT22;7258;50.376;8.742;2023-03-21T00:09:45;8.60;99.90
14349;DHT22;7258;50.376;8.742;2023-03-21T00:11:50;8.60;99.90
14349;DHT22;7258;50.376;8.742;2023-03-21T00:13:52;8.60;99.90
14349;DHT22;7258;50.376;8.742;2023-03-21T00:16:03;8.60;99.90
14349;DHT22;7258;50.376;8.742;2023-03-21T00:18:13;8.60;99.90
14349;DHT22;7258;50.376;8.742;2023-03-21T00:20:16;8.60;99.90
14349;DHT22;7258;50.376;8.742;2023-03-21T00:22:19;8.60;99.90
14349;DHT22;7258;50.376;8.742;2023-03-21T00:24:22;8.60;99.90
14349;DHT22;7258;50.376;8.742;2023-03-21T00:26:25;8.60;99.90
14349;DHT22;7258;50.376;8.742;2023-03-21T00:28:29;8.60;99.90
14349;DHT22;7258;50.376;8.742;2023-03-21T00:30:32;8.60;99.90
14349;DHT22;7258;50.376;8.742;2023-03-21T00:32:35;8.60;99.90
14349;DHT22;7258;50.376;8.742;2023-03-21T00:34:58;8.60;99.90
14349;DHT22;7258;50.376;8.742;2023-03-21T00:37:21;8.60;99.90
14349;DHT22;7258;50.376;8.742;2023-03-21T00:39:24;8.60;99.90
14349;DHT22;7258;50.376;8.742;2023-03-21T00:41:27;8.60;99.90
14349;DHT22;7258;50.376;8.742;2023-03-21T00:43:45;8.60;99.90
14349;DHT22;7258;50.376;8.742;2023-03-21T00:45:49;8.60;99.90
14349;DHT22;7258;50.376;8.742;2023-03-21T00:47:52;8.60;99.90
14349;DHT22;7258;50.376;8.742;2023-03-21T00:49:55;8.60;99.90
14349;DHT22;7258;50.376;8.742;2023-03-21T00:51:58;8.60;99.90
14349;DHT22;7258;50.376;8.742;2023-03-21T00:54:16;8.60;99.90
14349;DHT22;7258;50.376;8.742;2023-03-21T00:56:20;8.60;99.90
14349;DHT22;7258;50.376;8.742;2023-03-21T00:58:23;8.60;99.90
14349;DHT22;7258;50.376;8.742;2023-03-21T01:00:28;8.60;99.90
14349;DHT22;7258;50.376;8.742;2023-03-21T01:02:31;8.60;99.90
14349;DHT22;7258;50.376;8.742;2023-03-21T01:04:34;8.50;99.90
14349;DHT22;7258;50.376;8.742;2023-03-21T01:06:37;8.50;99.90
14349;DHT22;7258;50.376;8.742;2023-03-21T01:08:42;8.50;99.90
14349;DHT22;7258;50.376;8.742;2023-03-21T01:10:54;8.50;99.90
14349;DHT22;7258;50.376;8.742;2023-03-21T01:12:57;8.50;99.90
14349;DHT22;7258;50.376;8.742;2023-03-21T01:15:01;8.50;99.90
14349;DHT22;7258;50.376;8.742;2023-03-21T01:17:05;8.50;99.90
14349;DHT22;7258;50.376;8.742;2023-03-21T01:19:11;8.50;99.90
14349;DHT22;7258;50.376;8.742;2023-03-21T01:21:27;8.50;99.90
14349;DHT22;7258;50.376;8.742;2023-03-21T01:23:32;8.50;99.90
14349;DHT22;7258;50.376;8.742;2023-03-21T01:25:35;8.50;99.90
14349;DHT22;7258;50.376;8.742;2023-03-21T01:27:39;8.50;99.90
14349;DHT22;7258;50.376;8.742;2023-03-21T01:29:41;8.50;99.90
14349;DHT22;7258;50.376;8.742;2023-03-21T01:31:45;8.50;99.90
14349;DHT22;7258;50.376;8.742;2023-03-21T01:33:50;8.50;99.90
14349;DHT22;7258;50.376;8.742;2023-03-21T01:35:53;8.50;99.90
14349;DHT22;7258;50.376;8.742;2023-03-21T01:38:13;8.50;99.90
14349;DHT22;7258;50.376;8.742;2023-03-21T01:40:19;8.50;99.90
14349;DHT22;7258;50.376;8.742;2023-03-21T01:42:22;8.50;99.90
14349;DHT22;7258;50.376;8.742;2023-03-21T01:44:25;8.50;99.90
14349;DHT22;7258;50.376;8.742;2023-03-21T01:46:36;8.50;99.90
14349;DHT22;7258;50.376;8.742;2023-03-21T01:49:02;8.50;99.90
14349;DHT22;7258;50.376;8.742;2023-03-21T01:51:06;8.50;99.90
14349;DHT22;7258;50.376;8.742;2023-03-21T01:53:11;8.50;99.90
14349;DHT22;7258;50.376;8.742;2023-03-21T01:55:15;8.50;99.90
14349;DHT22;7258;50.376;8.742;2023-03-21T01:57:21;8.50;99.90
14349;DHT22;7258;50.376;8.742;2023-03-21T01:59:45;8.40;99.90
14349;DHT22;7258;50.376;8.742;2023-03-21T02:01:52;8.40;99.90
14349;DHT22;7258;50.376;8.742;2023-03-21T02:03:55;8.40;99.90
14349;DHT22;7258;50.376;8.742;2023-03-21T02:06:09;8.40;99.90
14349;DHT22;7258;50.376;8.742;2023-03-21T02:08:14;8.40;99.90
14349;DHT22;7258;50.376;8.742;2023-03-21T02:10:17;8.40;99.90
14349;DHT22;7258;50.376;8.742;2023-03-21T02:12:22;8.40;99.90
14349;DHT22;7258;50.376;8.742;2023-03-21T02:14:25;8.30;99.90
14349;DHT22;7258;50.376;8.742;2023-03-21T02:16:37;8.30;99.90
14349;DHT22;7258;50.376;8.742;2023-03-21T02:18:48;8.30;99.90
14349;DHT22;7258;50.376;8.742;2023-03-21T02:21:17;8.30;99.90
14349;DHT22;7258;50.376;8.742;2023-03-21T02:23:42;8.30;99.90
14349;DHT22;7258;50.376;8.742;2023-03-21T02:26:10;8.20;99.90
14349;DHT22;7258;50.376;8.742;2023-03-21T02:28:22;8.20;99.90
14349;DHT22;7258;50.376;8.742;2023-03-21T02:30:37;8.20;99.90
14349;DHT22;7258;50.376;8.742;2023-03-21T02:33:17;8.20;99.90
14349;DHT22;7258;50.376;8.742;2023-03-21T02:35:31;8.20;99.90
14349;DHT22;7258;50.376;8.742;2023-03-21T02:37:47;8.20;99.90
14349;DHT22;7258;50.376;8.742;2023-03-21T02:40:08;8.20;99.90
14349;DHT22;7258;50.376;8.742;2023-03-21T02:42:16;8.20;99.90
14349;DHT22;7258;50.376;8.742;2023-03-21T02:44:24;8.20;99.90
14349;DHT22;7258;50.376;8.742;2023-03-21T02:46:33;8.20;99.90
14349;DHT22;7258;50.376;8.742;2023-03-21T02:48:53;8.20;99.90
14349;DHT22;7258;50.376;8.742;2023-03-21T02:50:59;8.20;99.90
14349;DHT22;7258;50.376;8.742;2023-03-21T02:53:06;8.20;99.90
14349;DHT22;7258;50.376;8.742;2023-03-21T02:55:12;8.20;99.90
14349;DHT22;7258;50.376;8.742;2023-03-21T02:57:19;8.20;99.90
14349;DHT22;7258;50.376;8.742;2023-03-21T02:59:28;8.20;99.90
14349;DHT22;7258;50.376;8.742;2023-03-21T03:01:35;8.10;99.90
14349;DHT22;7258;50.376;8.742;2023-03-21T03:03:41;8.10;99.90
14349;DHT22;7258;50.376;8.742;2023-03-21T03:05:47;8.10;99.90
14349;DHT22;7258;50.376;8.742;2023-03-21T03:08:01;8.00;99.90
14349;DHT22;7258;50.376;8.742;2023-03-21T03:10:20;8.00;99.90
14349;DHT22;7258;50.376;8.742;2023-03-21T03:12:30;8.00;99.90
14349;DHT22;7258;50.376;8.742;2023-03-21T03:14:44;7.90;99.90
14349;DHT22;7258;50.376;8.742;2023-03-21T03:17:17;7.90;99.90
14349;DHT22;7258;50.376;8.742;2023-03-21T03:19:25;7.90;99.90
14349;DHT22;7258;50.376;8.742;2023-03-21T03:21:32;7.80;99.90
14349;DHT22;7258;50.376;8.742;2023-03-21T03:23:42;7.80;99.90
14349;DHT22;7258;50.376;8.742;2023-03-21T03:25:52;7.70;99.90
14349;DHT22;7258;50.376;8.742;2023-03-21T03:27:59;7.70;99.90
14349;DHT22;7258;50.376;8.742;2023-03-21T03:30:05;7.70;99.90
14349;DHT22;7258;50.376;8.742;2023-03-21T03:32:13;7.60;99.90
14349;DHT22;7258;50.376;8.742;2023-03-21T03:34:19;7.60;99.90
14349;DHT22;7258;50.376;8.742;2023-03-21T03:36:26;7.60;99.90
14349;DHT22;7258;50.376;8.742;2023-03-21T03:38:35;7.60;99.90
14349;DHT22;7258;50.376;8.742;2023-03-21T03:40:41;7.60;99.90
14349;DHT22;7258;50.376;8.742;2023-03-21T03:42:50;7.50;99.90
14349;DHT22;7258;50.376;8.742;2023-03-21T03:44:54;7.50;99.90
14349;DHT22;7258;50.376;8.742;2023-03-21T03:47:00;7.40;99.90
14349;DHT22;7258;50.376;8.742;2023-03-21T03:49:08;7.40;99.90
14349;DHT22;7258;50.376;8.742;2023-03-21T03:51:16;7.30;99.90
14349;DHT22;7258;50.376;8.742;2023-03-21T03:53:26;7.30;99.90
14349;DHT22;7258;50.376;8.742;2023-03-21T03:55:30;7.20;99.90
14349;DHT22;7258;50.376;8.742;2023-03-21T03:57:35;7.20;99.90
14349;DHT22;7258;50.376;8.742;2023-03-21T03:59:41;7.10;99.90
14349;DHT22;7258;50.376;8.742;2023-03-21T04:01:44;7.10;99.90
14349;DHT22;7258;50.376;8.742;2023-03-21T04:03:48;7.00;99.90
14349;DHT22;7258;50.376;8.742;2023-03-21T04:06:04;7.00;99.90
14349;DHT22;7258;50.376;8.742;2023-03-21T04:08:08;7.00;99.90
14349;DHT22;7258;50.376;8.742;2023-03-21T04:10:11;6.90;99.90
14349;DHT22;7258;50.376;8.742;2023-03-21T04:12:13;6.90;99.90
14349;DHT22;7258;50.376;8.742;2023-03-21T04:14:16;6.80;99.90
14349;DHT22;7258;50.376;8.742;2023-03-21T04:16:20;6.90;99.90
14349;DHT22;7258;50.376;8.742;2023-03-21T04:18:27;6.90;99.90
14349;DHT22;7258;50.376;8.742;2023-03-21T04:20:29;6.80;99.90
14349;DHT22;7258;50.376;8.742;2023-03-21T04:22:38;6.80;99.90
14349;DHT22;7258;50.376;8.742;2023-03-21T04:24:41;6.80;99.90
14349;DHT22;7258;50.376;8.742;2023-03-21T04:26:44;6.80;99.90
14349;DHT22;7258;50.376;8.742;2023-03-21T04:28:50;6.80;99.90
14349;DHT22;7258;50.376;8.742;2023-03-21T04:30:53;6.90;99.90
14349;DHT22;7258;50.376;8.742;2023-03-21T04:33:08;6.90;99.90
14349;DHT22;7258;50.376;8.742;2023-03-21T04:35:11;6.90;99.90
14349;DHT22;7258;50.376;8.742;2023-03-21T04:37:15;6.90;99.90
14349;DHT22;7258;50.376;8.742;2023-03-21T04:39:18;7.00;99.90
14349;DHT22;7258;50.376;8.742;2023-03-21T04:41:25;7.00;99.90
14349;DHT22;7258;50.376;8.742;2023-03-21T04:43:28;7.00;99.90
14349;DHT22;7258;50.376;8.742;2023-03-21T04:45:32;7.00;99.90
14349;DHT22;7258;50.376;8.742;2023-03-21T04:47:35;7.00;99.90
14349;DHT22;7258;50.376;8.742;2023-03-21T04:49:40;7.00;99.90
14349;DHT22;7258;50.376;8.742;2023-03-21T04:51:46;7.10;99.90
14349;DHT22;7258;50.376;8.742;2023-03-21T04:53:49;7.10;99.90
14349;DHT22;7258;50.376;8.742;2023-03-21T04:55:53;7.10;99.90
14349;DHT22;7258;50.376;8.742;2023-03-21T04:57:58;7.10;99.90
14349;DHT22;7258;50.376;8.742;2023-03-21T05:00:03;7.10;99.90
14349;DHT22;7258;50.376;8.742;2023-03-21T05:02:10;7.20;99.90
14349;DHT22;7258;50.376;8.742;2023-03-21T05:04:13;7.20;99.90
14349;DHT22;7258;50.376;8.742;2023-03-21T05:06:18;7.20;99.90
14349;DHT22;7258;50.376;8.742;2023-03-21T05:08:21;7.20;99.90
14349;DHT22;7258;50.376;8.742;2023-03-21T05:10:25;7.20;99.90
14349;DHT22;7258;50.376;8.742;2023-03-21T05:12:27;7.20;99.90
14349;DHT22;7258;50.376;8.742;2023-03-21T05:14:30;7.20;99.90
14349;DHT22;7258;50.376;8.742;2023-03-21T05:16:34;7.20;99.90
14349;DHT22;7258;50.376;8.742;2023-03-21T05:18:39;7.10;99.90
14349;DHT22;7258;50.376;8.742;2023-03-21T05:20:42;7.10;99.90
14349;DHT22;7258;50.376;8.742;2023-03-21T05:22:47;7.10;99.90
14349;DHT22;7258;50.376;8.742;2023-03-21T05:24:52;7.00;99.90
14349;DHT22;7258;50.376;8.742;2023-03-21T05:26:56;7.00;99.90
14349;DHT22;7258;50.376;8.742;2023-03-21T05:29:02;6.90;99.90
14349;DHT22;7258;50.376;8.742;2023-03-21T05:31:06;6.90;99.90
14349;DHT22;7258;50.376;8.742;2023-03-21T05:33:09;6.80;99.90
14349;DHT22;7258;50.376;8.742;2023-03-21T05:35:12;6.80;99.90
14349;DHT22;7258;50.376;8.742;2023-03-21T05:37:15;6.70;99.90
14349;DHT22;7258;50.376;8.742;2023-03-21T05:39:19;6.70;99.90
14349;DHT22;7258;50.376;8.742;2023-03-21T05:41:22;6.70;99.90
14349;DHT22;7258;50.376;8.742;2023-03-21T05:43:25;6.60;99.90
14349;DHT22;7258;50.376;8.742;2023-03-21T05:45:28;6.60;99.90
14349;DHT22;7258;50.376;8.742;2023-03-21T05:47:31;6.60;99.90
14349;DHT22;7258;50.376;8.742;2023-03-21T05:49:34;6.60;99.90
14349;DHT22;7258;50.376;8.742;2023-03-21T05:51:37;6.60;99.90
14349;DHT22;7258;50.376;8.742;2023-03-21T05:53:40;6.70;99.90
14349;DHT22;7258;50.376;8.742;2023-03-21T05:55:45;6.60;99.90
14349;DHT22;7258;50.376;8.742;2023-03-21T05:57:48;6.60;99.90
14349;DHT22;7258;50.376;8.742;2023-03-21T05:59:51;6.60;99.90
14349;DHT22;7258;50.376;8.742;2023-03-21T06:01:54;6.70;99.90
14349;DHT22;7258;50.376;8.742;2023-03-21T06:03:57;6.70;99.90
14349;DHT22;7258;50.376;8.742;2023-03-21T06:06:00;6.80;99.90
14349;DHT22;7258;50.376;8.742;2023-03-21T06:08:04;6.80;99.90
14349;DHT22;7258;50.376;8.742;2023-03-21T06:10:08;6.90;99.90
14349;DHT22;7258;50.376;8.742;2023-03-21T06:12:14;6.90;99.90
14349;DHT22;7258;50.376;8.742;2023-03-21T06:14:18;7.00;99.90
14349;DHT22;7258;50.376;8.742;2023-03-21T06:16:21;7.00;99.90
14349;DHT22;7258;50.376;8.742;2023-03-21T06:18:24;7.10;99.90
14349;DHT22;7258;50.376;8.742;2023-03-21T06:20:28;7.20;99.90
14349;DHT22;7258;50.376;8.742;2023-03-21T06:22:32;7.30;99.90
14349;DHT22;7258;50.376;8.742;2023-03-21T06:24:36;7.40;99.90
14349;DHT22;7258;50.376;8.742;2023-03-21T06:26:39;7.40;99.90
14349;DHT22;7258;50.376;8.742;2023-03-21T06:28:47;7.50;99.90
14349;DHT22;7258;50.376;8.742;2023-03-21T06:30:51;7.60;99.90
14349;DHT22;7258;50.376;8.742;2023-03-21T06:32:54;7.70;99.90
14349;DHT22;7258;50.376;8.742;2023-03-21T06:34:57;7.80;99.90
14349;DHT22;7258;50.376;8.742;2023-03-21T06:37:01;7.90;99.90
14349;DHT22;7258;50.376;8.742;2023-03-21T06:39:04;8.00;99.90
14349;DHT22;7258;50.376;8.742;2023-03-21T06:41:09;8.10;99.90
14349;DHT22;7258;50.376;8.742;2023-03-21T06:43:12;8.30;99.90
14349;DHT22;7258;50.376;8.742;2023-03-21T06:45:17;8.40;99.90
14349;DHT22;7258;50.376;8.742;2023-03-21T06:47:21;8.60;99.90
14349;DHT22;7258;50.376;8.742;2023-03-21T06:49:24;8.80;99.90
14349;DHT22;7258;50.376;8.742;2023-03-21T06:51:28;8.90;99.90
14349;DHT22;7258;50.376;8.742;2023-03-21T06:53:35;9.00;99.90
14349;DHT22;7258;50.376;8.742;2023-03-21T06:55:38;9.10;99.90
14349;DHT22;7258;50.376;8.742;2023-03-21T06:57:41;9.20;99.90
14349;DHT22;7258;50.376;8.742;2023-03-21T06:59:44;9.30;99.90
14349;DHT22;7258;50.376;8.742;2023-03-21T07:01:49;9.40;99.90
14349;DHT22;7258;50.376;8.742;2023-03-21T07:03:52;9.50;99.90
14349;DHT22;7258;50.376;8.742;2023-03-21T07:05:57;9.50;99.90
14349;DHT22;7258;50.376;8.742;2023-03-21T07:08:00;9.60;99.90
14349;DHT22;7258;50.376;8.742;2023-03-21T07:10:03;9.70;99.90
14349;DHT22;7258;50.376;8.742;2023-03-21T07:12:07;9.70;99.90
14349;DHT22;7258;50.376;8.742;2023-03-21T07:14:10;9.60;99.90
14349;DHT22;7258;50.376;8.742;2023-03-21T07:16:13;9.60;99.90
14349;DHT22;7258;50.376;8.742;2023-03-21T07:18:18;9.60;99.90
14349;DHT22;7258;50.376;8.742;2023-03-21T07:20:21;9.60;99.90
14349;DHT22;7258;50.376;8.742;2023-03-21T07:22:26;9.60;99.90
14349;DHT22;7258;50.376;8.742;2023-03-21T07:24:32;9.70;99.90
14349;DHT22;7258;50.376;8.742;2023-03-21T07:26:35;9.80;99.90
14349;DHT22;7258;50.376;8.742;2023-03-21T07:28:38;10.00;99.90
14349;DHT22;7258;50.376;8.742;2023-03-21T07:30:42;10.10;99.90
14349;DHT22;7258;50.376;8.742;2023-03-21T07:33:07;10.20;99.90
14349;DHT22;7258;50.376;8.742;2023-03-21T07:35:29;10.40;99.90
14349;DHT22;7258;50.376;8.742;2023-03-21T07:37:33;10.50;99.90
14349;DHT22;7258;50.376;8.742;2023-03-21T07:39:38;10.50;99.90
14349;DHT22;7258;50.376;8.742;2023-03-21T07:41:43;10.60;99.90
14349;DHT22;7258;50.376;8.742;2023-03-21T07:43:46;10.60;99.90
14349;DHT22;7258;50.376;8.742;2023-03-21T07:45:49;10.70;99.90
14349;DHT22;7258;50.376;8.742;2023-03-21T07:47:52;10.60;99.90
14349;DHT22;7258;50.376;8.742;2023-03-21T07:49:55;10.60;99.90
14349;DHT22;7258;50.376;8.742;2023-03-21T07:51:59;10.50;99.90
14349;DHT22;7258;50.376;8.742;2023-03-21T07:54:05;10.60;99.90
14349;DHT22;7258;50.376;8.742;2023-03-21T07:56:09;10.60;99.90
14349;DHT22;7258;50.376;8.742;2023-03-21T07:58:12;10.70;99.90
14349;DHT22;7258;50.376;8.742;2023-03-21T08:00:16;10.80;99.90
14349;DHT22;7258;50.376;8.742;2023-03-21T08:02:23;10.80;99.90
14349;DHT22;7258;50.376;8.742;2023-03-21T08:04:29;10.80;99.90
14349;DHT22;7258;50.376;8.742;2023-03-21T08:06:33;10.90;99.90
14349;DHT22;7258;50.376;8.742;2023-03-21T08:08:37;10.90;99.90
14349;DHT22;7258;50.376;8.742;2023-03-21T08:10:41;10.90;99.90
14349;DHT22;7258;50.376;8.742;2023-03-21T08:12:45;10.90;99.90
14349;DHT22;7258;50.376;8.742;2023-03-21T08:14:50;11.10;99.90
14349;DHT22;7258;50.376;8.742;2023-03-21T08:16:53;11.20;99.90
14349;DHT22;7258;50.376;8.742;2023-03-21T08:18:56;11.30;99.90
14349;DHT22;7258;50.376;8.742;2023-03-21T08:20:59;11.30;99.90
14349;DHT22;7258;50.376;8.742;2023-03-21T08:23:03;11.30;99.90
14349;DHT22;7258;50.376;8.742;2023-03-21T08:25:08;11.40;99.90
14349;DHT22;7258;50.376;8.742;2023-03-21T08:27:14;11.40;99.90
14349;DHT22;7258;50.376;8.742;2023-03-21T08:29:17;11.30;99.90
14349;DHT22;7258;50.376;8.742;2023-03-21T08:31:23;11.30;99.90
14349;DHT22;7258;50.376;8.742;2023-03-21T08:33:26;11.30;99.90
14349;DHT22;7258;50.376;8.742;2023-03-21T08:35:30;11.20;99.90
14349;DHT22;7258;50.376;8.742;2023-03-21T08:37:33;11.20;99.90
14349;DHT22;7258;50.376;8.742;2023-03-21T08:39:36;11.20;99.90
14349;DHT22;7258;50.376;8.742;2023-03-21T08:41:41;11.20;99.90
14349;DHT22;7258;50.376;8.742;2023-03-21T08:43:44;11.20;99.90
14349;DHT22;7258;50.376;8.742;2023-03-21T08:45:48;11.30;99.90
14349;DHT22;7258;50.376;8.742;2023-03-21T08:47:51;11.40;99.90
14349;DHT22;7258;50.376;8.742;2023-03-21T08:49:55;11.50;99.90
14349;DHT22;7258;50.376;8.742;2023-03-21T08:52:00;11.60;99.90
14349;DHT22;7258;50.376;8.742;2023-03-21T08:54:03;11.70;99.90
14349;DHT22;7258;50.376;8.742;2023-03-21T08:56:09;11.80;99.90
14349;DHT22;7258;50.376;8.742;2023-03-21T08:58:14;11.90;99.90
14349;DHT22;7258;50.376;8.742;2023-03-21T09:00:17;12.00;99.90
14349;DHT22;7258;50.376;8.742;2023-03-21T09:02:21;12.20;99.90
14349;DHT22;7258;50.376;8.742;2023-03-21T09:04:24;12.30;99.90
14349;DHT22;7258;50.376;8.742;2023-03-21T09:06:28;12.40;99.90
14349;DHT22;7258;50.376;8.742;2023-03-21T09:08:31;12.50;99.90
14349;DHT22;7258;50.376;8.742;2023-03-21T09:10:34;12.50;99.90
14349;DHT22;7258;50.376;8.742;2023-03-21T09:12:37;12.60;99.90
14349;DHT22;7258;50.376;8.742;2023-03-21T09:14:43;12.70;99.90
14349;DHT22;7258;50.376;8.742;2023-03-21T09:16:46;12.70;99.90
14349;DHT22;7258;50.376;8.742;2023-03-21T09:18:49;12.80;99.90
14349;DHT22;7258;50.376;8.742;2023-03-21T09:20:56;12.80;99.90
14349;DHT22;7258;50.376;8.742;2023-03-21T09:23:01;12.90;99.90
14349;DHT22;7258;50.376;8.742;2023-03-21T09:25:05;12.80;99.90
14349;DHT22;7258;50.376;8.742;2023-03-21T09:27:13;12.70;99.90
14349;DHT22;7258;50.376;8.742;2023-03-21T09:29:16;12.60;99.90
14349;DHT22;7258;50.376;8.742;2023-03-21T09:31:24;12.50;99.90
14349;DHT22;7258;50.376;8.742;2023-03-21T09:33:29;12.50;99.90
14349;DHT22;7258;50.376;8.742;2023-03-21T09:35:36;12.50;99.90
14349;DHT22;7258;50.376;8.742;2023-03-21T09:37:40;12.40;99.90
14349;DHT22;7258;50.376;8.742;2023-03-21T09:39:44;12.50;99.90
14349;DHT22;7258;50.376;8.742;2023-03-21T09:42:08;12.50;99.90
14349;DHT22;7258;50.376;8.742;2023-03-21T09:44:29;12.60;99.90
14349;DHT22;7258;50.376;8.742;2023-03-21T09:46:42;12.50;99.90
14349;DHT22;7258;50.376;8.742;2023-03-21T09:48:53;12.50;99.90
14349;DHT22;7258;50.376;8.742;2023-03-21T09:50:58;12.40;99.90
14349;DHT22;7258;50.376;8.742;2023-03-21T09:53:16;12.40;99.90
14349;DHT22;7258;50.376;8.742;2023-03-21T09:55:23;12.40;99.90
14349;DHT22;7258;50.376;8.742;2023-03-21T09:57:30;12.30;99.90
14349;DHT22;7258;50.376;8.742;2023-03-21T09:59:37;12.20;99.90
14349;DHT22;7258;50.376;8.742;2023-03-21T10:01:44;12.20;99.90
14349;DHT22;7258;50.376;8.742;2023-03-21T10:03:48;12.20;99.90
14349;DHT22;7258;50.376;8.742;2023-03-21T10:05:54;12.20;99.90
14349;DHT22;7258;50.376;8.742;2023-03-21T10:08:06;12.20;99.90
14349;DHT22;7258;50.376;8.742;2023-03-21T10:10:14;12.30;99.90
14349;DHT22;7258;50.376;8.742;2023-03-21T10:12:20;12.40;99.90
14349;DHT22;7258;50.376;8.742;2023-03-21T10:14:28;12.40;99.90
14349;DHT22;7258;50.376;8.742;2023-03-21T10:16:34;12.40;99.90
14349;DHT22;7258;50.376;8.742;2023-03-21T10:18:45;12.60;99.90
14349;DHT22;7258;50.376;8.742;2023-03-21T10:20:50;12.70;99.90
14349;DHT22;7258;50.376;8.742;2023-03-21T10:22:54;12.70;99.90
14349;DHT22;7258;50.376;8.742;2023-03-21T10:25:02;12.80;99.90
14349;DHT22;7258;50.376;8.742;2023-03-21T10:27:06;12.90;99.90
14349;DHT22;7258;50.376;8.742;2023-03-21T10:29:09;12.90;99.90
14349;DHT22;7258;50.376;8.742;2023-03-21T10:31:17;13.00;99.90
14349;DHT22;7258;50.376;8.742;2023-03-21T10:33:23;13.00;99.90
14349;DHT22;7258;50.376;8.742;2023-03-21T10:35:34;13.10;99.90
14349;DHT22;7258;50.376;8.742;2023-03-21T10:37:39;13.20;99.90
14349;DHT22;7258;50.376;8.742;2023-03-21T10:39:47;13.30;99.90
14349;DHT22;7258;50.376;8.742;2023-03-21T10:41:51;13.40;99.90
14349;DHT22;7258;50.376;8.742;2023-03-21T10:44:05;13.40;99.90
14349;DHT22;7258;50.376;8.742;2023-03-21T10:46:12;13.40;99.90
14349;DHT22;7258;50.376;8.742;2023-03-21T10:48:18;13.40;99.90
14349;DHT22;7258;50.376;8.742;2023-03-21T10:50:30;13.40;99.90
14349;DHT22;7258;50.376;8.742;2023-03-21T10:52:34;13.40;99.90
14349;DHT22;7258;50.376;8.742;2023-03-21T10:54:41;13.30;99.90
14349;DHT22;7258;50.376;8.742;2023-03-21T10:56:51;13.20;99.90
14349;DHT22;7258;50.376;8.742;2023-03-21T10:58:58;13.20;99.90
14349;DHT22;7258;50.376;8.742;2023-03-21T11:01:05;13.10;99.90
14349;DHT22;7258;50.376;8.742;2023-03-21T11:03:19;13.10;99.90
14349;DHT22;7258;50.376;8.742;2023-03-21T11:05:25;13.10;99.90
14349;DHT22;7258;50.376;8.742;2023-03-21T11:07:34;13.10;99.90
14349;DHT22;7258;50.376;8.742;2023-03-21T11:09:44;13.10;99.90
14349;DHT22;7258;50.376;8.742;2023-03-21T11:11:50;13.10;99.90
14349;DHT22;7258;50.376;8.742;2023-03-21T11:13:58;13.00;99.90
14349;DHT22;7258;50.376;8.742;2023-03-21T11:16:06;13.00;99.90
14349;DHT22;7258;50.376;8.742;2023-03-21T11:18:16;12.90;99.90
14349;DHT22;7258;50.376;8.742;2023-03-21T11:20:23;12.80;99.90
14349;DHT22;7258;50.376;8.742;2023-03-21T11:25:36;12.70;99.90
14349;DHT22;7258;50.376;8.742;2023-03-21T11:27:48;12.60;99.90
14349;DHT22;7258;50.376;8.742;2023-03-21T11:30:31;12.30;99.90
14349;DHT22;7258;50.376;8.742;2023-03-21T11:33:52;12.30;99.90
14349;DHT22;7258;50.376;8.742;2023-03-21T11:36:35;12.00;99.90
14349;DHT22;7258;50.376;8.742;2023-03-21T11:39:26;11.80;99.90
14349;DHT22;7258;50.376;8.742;2023-03-21T11:41:59;11.50;99.90
14349;DHT22;7258;50.376;8.742;2023-03-21T11:46:53;11.30;99.90
14349;DHT22;7258;50.376;8.742;2023-03-21T11:49:10;11.20;99.90
14349;DHT22;7258;50.376;8.742;2023-03-21T12:04:47;10.60;99.90
14349;DHT22;7258;50.376;8.742;2023-03-21T12:08:27;10.60;99.90
14349;DHT22;7258;50.376;8.742;2023-03-21T12:11:26;10.70;99.90
14349;DHT22;7258;50.376;8.742;2023-03-21T12:14:26;10.60;99.90
14349;DHT22;7258;50.376;8.742;2023-03-21T12:25:51;10.60;99.90
14349;DHT22;7258;50.376;8.742;2023-03-21T12:28:28;10.70;99.90
14349;DHT22;7258;50.376;8.742;2023-03-21T12:37:15;10.40;99.90
14349;DHT22;7258;50.376;8.742;2023-03-21T12:39:31;10.40;99.90
14349;DHT22;7258;50.376;8.742;2023-03-21T12:41:42;10.50;99.90
14349;DHT22;7258;50.376;8.742;2023-03-21T12:43:49;10.60;99.90
14349;DHT22;7258;50.376;8.742;2023-03-21T12:45:59;10.70;99.90
14349;DHT22;7258;50.376;8.742;2023-03-21T12:48:18;10.90;99.90
14349;DHT22;7258;50.376;8.742;2023-03-21T12:50:25;10.90;99.90
14349;DHT22;7258;50.376;8.742;2023-03-21T12:52:32;10.80;99.90
14349;DHT22;7258;50.376;8.742;2023-03-21T12:54:45;10.80;99.90
14349;DHT22;7258;50.376;8.742;2023-03-21T12:56:54;10.90;99.90
14349;DHT22;7258;50.376;8.742;2023-03-21T12:59:07;11.00;99.90
14349;DHT22;7258;50.376;8.742;2023-03-21T13:01:15;11.00;99.90
14349;DHT22;7258;50.376;8.742;2023-03-21T13:03:30;11.00;99.90
14349;DHT22;7258;50.376;8.742;2023-03-21T13:06:05;11.10;99.90
14349;DHT22;7258;50.376;8.742;2023-03-21T13:08:55;11.00;99.90
14349;DHT22;7258;50.376;8.742;2023-03-21T13:11:40;11.00;99.90
14349;DHT22;7258;50.376;8.742;2023-03-21T13:14:16;11.00;99.90
14349;DHT22;7258;50.376;8.742;2023-03-21T13:23:21;10.70;99.90
14349;DHT22;7258;50.376;8.742;2023-03-21T13:25:45;10.70;99.90
14349;DHT22;7258;50.376;8.742;2023-03-21T13:28:03;10.60;99.90
14349;DHT22;7258;50.376;8.742;2023-03-21T13:30:40;10.60;99.90
14349;DHT22;7258;50.376;8.742;2023-03-21T13:33:06;10.50;99.90
14349;DHT22;7258;50.376;8.742;2023-03-21T13:35:32;10.40;99.90
14349;DHT22;7258;50.376;8.742;2023-03-21T13:37:51;10.30;99.90
14349;DHT22;7258;50.376;8.742;2023-03-21T13:44:30;10.20;99.90
14349;DHT22;7258;50.376;8.742;2023-03-21T13:47:01;10.30;99.90
14349;DHT22;7258;50.376;8.742;2023-03-21T13:49:29;10.10;99.90
14349;DHT22;7258;50.376;8.742;2023-03-21T14:08:27;10.10;99.90
14349;DHT22;7258;50.376;8.742;2023-03-21T14:10:56;10.20;99.90
14349;DHT22;7258;50.376;8.742;2023-03-21T14:13:05;10.10;99.90
14349;DHT22;7258;50.376;8.742;2023-03-21T14:15:41;10.10;99.90
14349;DHT22;7258;50.376;8.742;2023-03-21T14:23:44;10.00;99.90
14349;DHT22;7258;50.376;8.742;2023-03-21T14:26:09;9.90;99.90
14349;DHT22;7258;50.376;8.742;2023-03-21T14:28:30;9.90;99.90
14349;DHT22;7258;50.376;8.742;2023-03-21T14:30:42;9.80;99.90
14349;DHT22;7258;50.376;8.742;2023-03-21T14:33:16;9.80;99.90
14349;DHT22;7258;50.376;8.742;2023-03-21T14:35:58;9.90;99.90
14349;DHT22;7258;50.376;8.742;2023-03-21T14:38:16;10.00;99.90
14349;DHT22;7258;50.376;8.742;2023-03-21T14:40:48;10.00;99.90
14349;DHT22;7258;50.376;8.742;2023-03-21T14:42:55;10.10;99.90
14349;DHT22;7258;50.376;8.742;2023-03-21T14:45:16;10.20;99.90
14349;DHT22;7258;50.376;8.742;2023-03-21T14:47:53;10.20;99.90
14349;DHT22;7258;50.376;8.742;2023-03-21T14:50:10;10.30;99.90
14349;DHT22;7258;50.376;8.742;2023-03-21T14:52:37;10.30;99.90
14349;DHT22;7258;50.376;8.742;2023-03-21T14:55:13;10.40;99.90
14349;DHT22;7258;50.376;8.742;2023-03-21T14:57:20;10.40;99.90
14349;DHT22;7258;50.376;8.742;2023-03-21T14:59:58;10.40;99.90
14349;DHT22;7258;50.376;8.742;2023-03-21T15:02:37;10.30;99.90
14349;DHT22;7258;50.376;8.742;2023-03-21T15:07:51;10.20;99.90
14349;DHT22;7258;50.376;8.742;2023-03-21T15:10:25;10.20;99.90
14349;DHT22;7258;50.376;8.742;2023-03-21T15:12:36;10.10;99.90